Mattoon, Illinois
Current Conditions -  °F | °C
As of 9:53 AM on Friday 31 Oct 2014 (Local Time) from KMTO Reporting Station
Overcast Overcast  
Wind Chill: 25°   Ceiling: 6000
Heat Index: 37°   Visibility: 10mi
Dew Point: 26°   Wind: 29mph
Humidity: 65%   Direction: 330°NNW
Pressure: 30.14"   Gusts: 36mph
Location:  39.48°N, 88.37°W
Report Text: KMTO 311453Z AUTO 33025G31KT 10SM OVC060 03/M03 A3014 RMK AO2 PK WND 33033/1358 SLP210 60000 T00281033 51025
Loading
Personal Weather Stations






























Interactive Weather Map New forecast layout! Learn more

10-Day Weather Forecast

Advertisements
Track Severe Weather on mobile